Time;durP1;ratioP1;P1;durP2;ratioP2;P2;SDS_P1;SDS_P2;PMS_P1;PMS_P2;Temp;Humidity;BMP_temperature;BMP_pressure;BME280_temperature;BME280_humidity;BME280_pressure;Samples;Min_cycle;Max_cycle;Signal;HPM_P1;HPM_P2
2021/12/06 00:00:12;;;;;;;5.30;3.15;;;;;;;;;;5028612;28;20042;-72
2021/12/06 00:02:38;;;;;;;5.88;3.72;;;;;;;;;;5028418;28;20030;-72
2021/12/06 00:05:04;;;;;;;7.05;3.33;;;;;;;;;;5028280;28;20105;-72
2021/12/06 00:07:30;;;;;;;6.88;3.03;;;;;;;;;;5028334;28;20029;-72
2021/12/06 00:09:57;;;;;;;5.85;2.70;;;;;;;;;;5028042;28;20485;-72
2021/12/06 00:12:23;;;;;;;4.40;2.95;;;;;;;;;;5028600;28;20029;-72
2021/12/06 00:14:49;;;;;;;8.43;3.42;;;;;;;;;;5028276;28;20025;-72
2021/12/06 00:17:19;;;;;;;5.97;2.60;;;;;;;;;;5027984;28;20090;-72
2021/12/06 00:19:45;;;;;;;4.43;2.50;;;;;;;;;;5028137;28;20551;-72
2021/12/06 00:22:16;;;;;;;3.15;1.95;;;;;;;;;;5028474;28;20049;-73
2021/12/06 00:24:42;;;;;;;3.15;2.15;;;;;;;;;;5027679;28;20030;-72
2021/12/06 00:27:08;;;;;;;2.00;1.80;;;;;;;;;;5028341;28;20450;-72
2021/12/06 00:29:34;;;;;;;6.50;2.95;;;;;;;;;;5027464;28;20033;-74
2021/12/06 00:32:01;;;;;;;4.07;2.67;;;;;;;;;;5027686;28;20022;-71
2021/12/06 00:34:32;;;;;;;5.13;2.88;;;;;;;;;;5027460;28;20037;-73
2021/12/06 00:37:41;;;;;;;4.43;2.83;;;;;;;;;;5027385;28;20033;-72
2021/12/06 00:39:53;;;;;;;4.20;2.47;;;;;;;;;;5025415;28;20025;-72
2021/12/06 00:42:27;;;;;;;5.45;2.08;;;;;;;;;;5027288;28;20080;-72
2021/12/06 00:44:54;;;;;;;4.45;2.70;;;;;;;;;;5027340;28;20085;-73
2021/12/06 00:47:20;;;;;;;4.72;2.60;;;;;;;;;;5027314;28;20105;-73
2021/12/06 00:49:47;;;;;;;2.97;1.98;;;;;;;;;;5027185;28;20054;-73
2021/12/06 00:52:14;;;;;;;5.70;2.03;;;;;;;;;;5027185;28;20071;-72
2021/12/06 00:54:40;;;;;;;14.38;5.70;;;;;;;;;;5026936;28;20026;-73
2021/12/06 00:57:07;;;;;;;7.43;3.53;;;;;;;;;;5026414;28;20041;-71
2021/12/06 00:59:34;;;;;;;8.13;3.05;;;;;;;;;;5026480;28;20121;-72
2021/12/06 01:02:00;;;;;;;9.98;4.20;;;;;;;;;;5026750;28;20056;-73
2021/12/06 01:04:28;;;;;;;5.55;3.20;;;;;;;;;;5026884;28;20041;-73
2021/12/06 01:06:54;;;;;;;8.70;3.03;;;;;;;;;;5026880;28;20030;-72
2021/12/06 01:09:20;;;;;;;6.43;2.58;;;;;;;;;;5026223;28;20022;-74
2021/12/06 01:11:46;;;;;;;3.78;2.30;;;;;;;;;;5025394;28;20034;-72
2021/12/06 01:14:12;;;;;;;3.53;2.53;;;;;;;;;;5027615;28;20030;-72
2021/12/06 01:16:39;;;;;;;7.45;2.40;;;;;;;;;;5025811;28;20029;-73
2021/12/06 01:19:05;;;;;;;4.25;1.92;;;;;;;;;;5026700;28;20098;-72
2021/12/06 01:21:50;;;;;;;4.07;2.05;;;;;;;;;;5025410;28;20022;-72
2021/12/06 01:24:20;;;;;;;5.35;2.40;;;;;;;;;;5025498;28;20029;-71
2021/12/06 01:32:17;;;;;;;5.55;1.98;;;;;;;;;;5025755;28;20261;-72
2021/12/06 01:40:13;;;;;;;4.13;3.03;;;;;;;;;;5026374;28;20037;-72
2021/12/06 01:42:39;;;;;;;3.55;2.13;;;;;;;;;;5026568;28;20101;-72
2021/12/06 01:45:06;;;;;;;6.25;2.35;;;;;;;;;;5027275;28;20101;-72
2021/12/06 01:47:33;;;;;;;6.25;2.92;;;;;;;;;;5025873;28;20076;-79
2021/12/06 01:50:18;;;;;;;4.30;2.50;;;;;;;;;;5024158;28;20094;-75
2021/12/06 01:52:46;;;;;;;9.20;2.33;;;;;;;;;;5027217;28;20030;-74
2021/12/06 01:55:20;;;;;;;5.60;2.20;;;;;;;;;;5026678;28;20328;-73
2021/12/06 01:57:47;;;;;;;5.57;2.75;;;;;;;;;;5025935;28;20030;-74
2021/12/06 02:00:16;;;;;;;5.90;2.10;;;;;;;;;;5025261;28;20045;-73
2021/12/06 02:02:43;;;;;;;6.63;2.30;;;;;;;;;;5023860;28;20030;-77
2021/12/06 02:05:11;;;;;;;6.10;2.75;;;;;;;;;;5028738;28;20477;-73
2021/12/06 02:07:38;;;;;;;6.82;2.38;;;;;;;;;;5030680;28;20029;-76
2021/12/06 02:10:04;;;;;;;6.07;2.10;;;;;;;;;;5029339;28;20029;-78
2021/12/06 02:12:31;;;;;;;12.57;3.92;;;;;;;;;;5029100;28;20045;-73
2021/12/06 02:15:24;;;;;;;7.80;3.20;;;;;;;;;;5028214;28;20002;-73
2021/12/06 02:18:08;;;;;;;4.55;2.33;;;;;;;;;;5029477;28;20503;-76
2021/12/06 02:20:42;;;;;;;7.95;2.15;;;;;;;;;;5028234;28;20085;-77
2021/12/06 02:23:09;;;;;;;6.80;2.40;;;;;;;;;;5027666;28;20044;-76
2021/12/06 02:25:35;;;;;;;4.50;2.67;;;;;;;;;;5028126;28;20037;-73
2021/12/06 02:28:04;;;;;;;6.28;2.25;;;;;;;;;;5028894;28;20393;-74
2021/12/06 02:30:30;;;;;;;6.07;2.20;;;;;;;;;;5027320;28;20021;-78
2021/12/06 02:32:58;;;;;;;3.60;2.20;;;;;;;;;;5025665;28;20040;-78
2021/12/06 02:35:28;;;;;;;6.82;2.22;;;;;;;;;;5025898;28;20026;-73
2021/12/06 02:37:55;;;;;;;3.47;2.00;;;;;;;;;;5027023;28;20026;-74
2021/12/06 02:40:27;;;;;;;3.88;2.20;;;;;;;;;;5025872;28;20018;-78
2021/12/06 02:42:54;;;;;;;5.20;2.20;;;;;;;;;;5005839;28;20023;-76
2021/12/06 02:45:21;;;;;;;3.15;2.08;;;;;;;;;;5006434;28;20033;-80
2021/12/06 02:47:53;;;;;;;4.82;1.98;;;;;;;;;;5005851;28;20030;-73
2021/12/06 02:50:19;;;;;;;3.22;2.20;;;;;;;;;;5020201;28;20113;-78
2021/12/06 02:52:47;;;;;;;4.63;2.33;;;;;;;;;;5025030;28;20209;-77
2021/12/06 02:55:30;;;;;;;3.03;2.15;;;;;;;;;;5026137;28;20052;-79
2021/12/06 02:58:14;;;;;;;2.72;2.00;;;;;;;;;;5028454;28;20078;-74
2021/12/06 03:00:45;;;;;;;2.50;1.80;;;;;;;;;;5027357;28;20022;-73
2021/12/06 03:03:11;;;;;;;2.38;2.00;;;;;;;;;;5028347;28;20022;-75
2021/12/06 03:05:43;;;;;;;3.22;2.22;;;;;;;;;;5026685;28;20093;-78
2021/12/06 03:08:09;;;;;;;2.70;1.90;;;;;;;;;;5026986;28;20121;-73
2021/12/06 03:10:36;;;;;;;2.30;2.10;;;;;;;;;;5027530;28;20206;-74
2021/12/06 03:13:02;;;;;;;4.05;2.00;;;;;;;;;;5028854;28;20026;-73
2021/12/06 03:15:29;;;;;;;1.83;1.73;;;;;;;;;;5028177;28;20041;-78
2021/12/06 03:17:55;;;;;;;6.30;1.77;;;;;;;;;;5027459;28;20032;-73
2021/12/06 03:20:22;;;;;;;3.72;2.17;;;;;;;;;;5029111;28;20037;-73
2021/12/06 03:22:48;;;;;;;2.38;1.95;;;;;;;;;;5027177;28;20432;-73
2021/12/06 03:25:18;;;;;;;3.15;2.15;;;;;;;;;;5028516;28;20018;-74
2021/12/06 03:27:45;;;;;;;1.73;1.63;;;;;;;;;;5028429;28;20032;-72
2021/12/06 03:30:12;;;;;;;2.60;1.90;;;;;;;;;;5027246;28;20465;-72
2021/12/06 03:32:38;;;;;;;2.17;1.75;;;;;;;;;;5028608;28;20061;-73
2021/12/06 03:35:05;;;;;;;2.13;1.50;;;;;;;;;;5028409;28;20021;-72
2021/12/06 03:37:31;;;;;;;1.60;1.40;;;;;;;;;;5028397;28;20488;-74
2021/12/06 03:39:57;;;;;;;1.58;1.48;;;;;;;;;;5027574;28;20045;-73
2021/12/06 03:42:24;;;;;;;3.45;1.83;;;;;;;;;;5028194;28;20473;-73
2021/12/06 03:44:50;;;;;;;1.60;1.50;;;;;;;;;;5027513;28;20033;-73
2021/12/06 03:47:18;;;;;;;1.88;1.60;;;;;;;;;;5028479;28;20400;-73
2021/12/06 03:49:44;;;;;;;1.50;1.40;;;;;;;;;;5028406;28;20057;-76
2021/12/06 03:52:17;;;;;;;1.98;1.63;;;;;;;;;;5028022;28;20022;-74
2021/12/06 03:54:43;;;;;;;2.75;1.77;;;;;;;;;;5027962;28;20036;-72
2021/12/06 03:57:10;;;;;;;1.50;1.40;;;;;;;;;;5027215;28;20030;-72
2021/12/06 03:59:36;;;;;;;2.08;1.67;;;;;;;;;;5028251;28;20026;-73
2021/12/06 04:02:03;;;;;;;4.80;1.60;;;;;;;;;;5028147;28;20041;-74
2021/12/06 04:04:29;;;;;;;1.60;1.50;;;;;;;;;;5027787;28;20029;-73
2021/12/06 04:06:55;;;;;;;3.63;1.80;;;;;;;;;;5027903;28;20041;-73
2021/12/06 04:09:24;;;;;;;1.73;1.40;;;;;;;;;;5027587;28;20017;-73
2021/12/06 04:11:51;;;;;;;1.63;1.50;;;;;;;;;;5027310;28;20080;-73
2021/12/06 04:14:17;;;;;;;3.17;1.50;;;;;;;;;;5026365;28;20061;-76
2021/12/06 04:16:43;;;;;;;1.50;1.38;;;;;;;;;;5026428;28;20488;-73
2021/12/06 04:19:10;;;;;;;1.60;1.50;;;;;;;;;;5027135;28;20026;-73
2021/12/06 04:21:36;;;;;;;3.08;1.48;;;;;;;;;;5027091;28;20037;-75
2021/12/06 04:24:09;;;;;;;1.67;1.58;;;;;;;;;;5027300;28;20048;-74
2021/12/06 04:26:36;;;;;;;1.70;1.60;;;;;;;;;;5025785;28;20480;-72
2021/12/06 04:29:02;;;;;;;1.58;1.48;;;;;;;;;;5027966;28;20100;-73
2021/12/06 04:31:29;;;;;;;1.50;1.40;;;;;;;;;;5027395;28;20056;-74
2021/12/06 04:33:55;;;;;;;1.80;1.50;;;;;;;;;;5028114;28;20049;-72
2021/12/06 04:36:22;;;;;;;2.38;1.60;;;;;;;;;;5027170;28;20161;-72
2021/12/06 04:38:48;;;;;;;1.60;1.50;;;;;;;;;;5026996;28;20041;-78
2021/12/06 04:41:14;;;;;;;1.98;1.60;;;;;;;;;;5027504;28;20372;-72
2021/12/06 04:43:40;;;;;;;1.30;1.30;;;;;;;;;;5026555;28;20075;-73
2021/12/06 04:46:06;;;;;;;1.58;1.45;;;;;;;;;;5026879;28;20033;-74
2021/12/06 04:48:32;;;;;;;1.83;1.52;;;;;;;;;;5026332;28;20035;-73
2021/12/06 04:51:00;;;;;;;2.25;1.50;;;;;;;;;;5026141;28;20061;-72
2021/12/06 04:53:28;;;;;;;1.80;1.70;;;;;;;;;;5027007;28;20029;-73
2021/12/06 04:56:16;;;;;;;1.55;1.45;;;;;;;;;;5026980;28;20030;-72
2021/12/06 04:59:03;;;;;;;1.60;1.50;;;;;;;;;;5027328;28;20045;-74
2021/12/06 05:01:31;;;;;;;1.60;1.50;;;;;;;;;;5026860;28;20030;-74
2021/12/06 05:03:59;;;;;;;1.48;1.38;;;;;;;;;;5026176;28;20022;-72
2021/12/06 05:06:27;;;;;;;3.78;1.85;;;;;;;;;;5026642;28;20025;-73
2021/12/06 05:08:55;;;;;;;2.30;1.40;;;;;;;;;;5026969;28;20037;-72
2021/12/06 05:11:23;;;;;;;2.00;1.35;;;;;;;;;;5026957;28;20029;-74
2021/12/06 05:13:52;;;;;;;2.03;1.60;;;;;;;;;;5027083;28;20049;-72
2021/12/06 05:16:18;;;;;;;3.45;1.50;;;;;;;;;;5026537;28;20036;-75
2021/12/06 05:18:44;;;;;;;1.83;1.70;;;;;;;;;;5026491;28;20053;-74
2021/12/06 05:21:10;;;;;;;2.42;1.73;;;;;;;;;;5026072;28;20030;-73
2021/12/06 05:23:37;;;;;;;2.28;1.70;;;;;;;;;;5026276;28;20030;-72
2021/12/06 05:26:03;;;;;;;2.67;1.70;;;;;;;;;;5026578;28;20033;-77
2021/12/06 05:28:32;;;;;;;4.18;1.70;;;;;;;;;;5026524;28;20049;-74
2021/12/06 05:30:58;;;;;;;3.00;1.90;;;;;;;;;;5026467;28;20034;-72
2021/12/06 05:33:30;;;;;;;3.60;1.80;;;;;;;;;;5026533;28;20060;-73
2021/12/06 05:35:59;;;;;;;2.85;1.98;;;;;;;;;;5026725;28;20045;-72
2021/12/06 05:38:27;;;;;;;2.10;1.90;;;;;;;;;;5025495;28;20026;-75
2021/12/06 05:40:53;;;;;;;1.67;1.58;;;;;;;;;;5026308;28;20075;-72
2021/12/06 05:43:19;;;;;;;3.30;1.95;;;;;;;;;;5026878;28;20061;-73
2021/12/06 05:45:45;;;;;;;2.42;1.90;;;;;;;;;;5026164;28;20096;-73
2021/12/06 05:48:11;;;;;;;5.20;1.88;;;;;;;;;;5024969;28;20025;-74
2021/12/06 05:50:37;;;;;;;3.13;1.95;;;;;;;;;;5020820;28;20069;-74
2021/12/06 05:53:04;;;;;;;2.13;1.92;;;;;;;;;;5025747;28;20037;-73
2021/12/06 05:55:30;;;;;;;1.83;1.73;;;;;;;;;;5025982;28;20049;-73
2021/12/06 05:58:00;;;;;;;2.65;1.95;;;;;;;;;;5026221;28;20018;-73
2021/12/06 06:00:28;;;;;;;4.20;1.90;;;;;;;;;;5026288;28;20076;-73
2021/12/06 06:02:54;;;;;;;3.80;1.70;;;;;;;;;;5025944;28;20025;-73
2021/12/06 06:05:21;;;;;;;1.90;1.67;;;;;;;;;;5025951;28;20022;-72
2021/12/06 06:07:47;;;;;;;2.78;1.90;;;;;;;;;;5026486;28;20026;-73
2021/12/06 06:10:13;;;;;;;2.33;2.05;;;;;;;;;;5026462;28;20022;-72
2021/12/06 06:12:39;;;;;;;2.95;2.22;;;;;;;;;;5026243;28;20030;-72
2021/12/06 06:15:06;;;;;;;4.13;1.80;;;;;;;;;;5026714;28;20032;-73
2021/12/06 06:17:39;;;;;;;5.88;2.38;;;;;;;;;;5025893;28;20030;-73
2021/12/06 06:20:07;;;;;;;4.30;2.08;;;;;;;;;;5026219;28;20029;-73
2021/12/06 06:22:33;;;;;;;4.25;1.75;;;;;;;;;;5026050;28;20030;-73
2021/12/06 06:24:59;;;;;;;2.58;2.25;;;;;;;;;;5026356;28;20036;-72
2021/12/06 06:27:25;;;;;;;2.20;1.80;;;;;;;;;;5026088;28;20026;-73
2021/12/06 06:29:51;;;;;;;4.03;2.00;;;;;;;;;;5026242;28;20031;-72
2021/12/06 06:32:20;;;;;;;5.70;1.88;;;;;;;;;;5025841;28;20101;-73
2021/12/06 06:34:46;;;;;;;6.05;2.13;;;;;;;;;;5025826;28;20029;-73
2021/12/06 06:37:13;;;;;;;9.00;2.20;;;;;;;;;;5025064;28;20030;-72
2021/12/06 06:39:39;;;;;;;3.80;2.00;;;;;;;;;;5025769;28;20026;-74
2021/12/06 06:42:05;;;;;;;3.70;1.98;;;;;;;;;;5025977;28;20033;-74
2021/12/06 06:44:31;;;;;;;8.65;2.22;;;;;;;;;;5026419;28;20030;-73
2021/12/06 06:46:58;;;;;;;7.95;2.40;;;;;;;;;;5026395;28;20021;-74
2021/12/06 06:49:25;;;;;;;10.77;2.40;;;;;;;;;;5025074;28;20050;-72
2021/12/06 06:51:51;;;;;;;7.75;2.30;;;;;;;;;;5027599;28;20022;-72
2021/12/06 06:54:26;;;;;;;7.53;2.10;;;;;;;;;;5029904;28;20085;-73
2021/12/06 06:56:52;;;;;;;8.23;2.72;;;;;;;;;;5029363;28;20077;-72
2021/12/06 06:59:18;;;;;;;7.30;2.10;;;;;;;;;;5029435;28;20495;-73
2021/12/06 07:01:45;;;;;;;6.68;2.30;;;;;;;;;;5029558;28;20069;-72
2021/12/06 07:04:12;;;;;;;4.35;2.33;;;;;;;;;;5028403;28;20064;-72
2021/12/06 07:06:38;;;;;;;5.07;2.30;;;;;;;;;;5028757;28;20064;-72
2021/12/06 07:09:04;;;;;;;8.70;2.10;;;;;;;;;;5029315;28;20022;-74
2021/12/06 07:11:31;;;;;;;6.55;2.30;;;;;;;;;;5029266;28;20037;-72
2021/12/06 07:13:57;;;;;;;8.43;4.05;;;;;;;;;;5029145;28;20026;-73
2021/12/06 07:16:24;;;;;;;7.50;2.72;;;;;;;;;;5029335;28;20026;-72
2021/12/06 07:18:53;;;;;;;7.60;2.50;;;;;;;;;;5029431;28;20030;-73
2021/12/06 07:21:19;;;;;;;4.78;2.40;;;;;;;;;;5029607;28;20101;-71
2021/12/06 07:23:46;;;;;;;7.25;2.40;;;;;;;;;;5029126;28;20025;-76
2021/12/06 07:26:13;;;;;;;10.23;2.83;;;;;;;;;;5028634;28;20061;-72
2021/12/06 07:28:40;;;;;;;7.93;2.72;;;;;;;;;;5029046;28;20384;-72
2021/12/06 07:31:08;;;;;;;5.03;2.40;;;;;;;;;;5028755;28;20046;-73
2021/12/06 07:33:34;;;;;;;6.97;3.10;;;;;;;;;;5028734;28;20057;-73
2021/12/06 07:36:00;;;;;;;5.50;2.63;;;;;;;;;;5029016;28;20026;-73
2021/12/06 07:38:27;;;;;;;14.40;3.80;;;;;;;;;;5028783;28;20160;-72
2021/12/06 07:40:59;;;;;;;7.65;3.40;;;;;;;;;;5029231;28;20033;-72
2021/12/06 07:43:25;;;;;;;8.90;3.35;;;;;;;;;;5028701;28;20045;-72
2021/12/06 07:45:51;;;;;;;7.25;2.85;;;;;;;;;;5028758;28;20057;-73
2021/12/06 07:48:17;;;;;;;11.93;2.88;;;;;;;;;;5029034;28;20032;-72
2021/12/06 07:50:43;;;;;;;9.25;3.45;;;;;;;;;;5028137;28;20046;-73
2021/12/06 07:53:10;;;;;;;7.30;3.20;;;;;;;;;;5028180;28;20038;-72
2021/12/06 07:55:36;;;;;;;8.65;3.38;;;;;;;;;;5028548;28;20061;-72
2021/12/06 07:58:04;;;;;;;9.85;2.92;;;;;;;;;;5028147;28;20022;-72
2021/12/06 08:00:31;;;;;;;9.90;3.17;;;;;;;;;;5026961;28;20053;-72
2021/12/06 08:02:58;;;;;;;11.65;4.07;;;;;;;;;;5025704;28;20026;-76
2021/12/06 08:05:30;;;;;;;8.63;4.03;;;;;;;;;;5036505;28;20021;-73
2021/12/06 08:07:57;;;;;;;16.33;4.47;;;;;;;;;;5025665;28;20037;-76
2021/12/06 08:10:23;;;;;;;16.58;4.35;;;;;;;;;;5022662;28;20048;-73
2021/12/06 08:12:49;;;;;;;10.75;4.20;;;;;;;;;;5026004;28;20038;-78
2021/12/06 08:15:15;;;;;;;13.05;4.10;;;;;;;;;;5026735;28;20033;-74
2021/12/06 08:17:42;;;;;;;14.27;4.43;;;;;;;;;;5026981;28;20037;-75
2021/12/06 08:20:08;;;;;;;8.15;4.20;;;;;;;;;;5024527;28;20037;-77
2021/12/06 08:22:35;;;;;;;14.65;4.38;;;;;;;;;;5023543;28;20072;-76
2021/12/06 08:25:01;;;;;;;13.35;3.75;;;;;;;;;;5023392;28;20025;-76
2021/12/06 08:27:27;;;;;;;11.73;4.57;;;;;;;;;;5024435;28;20124;-74
2021/12/06 08:29:53;;;;;;;11.10;3.90;;;;;;;;;;5036522;28;20127;-77
2021/12/06 08:32:20;;;;;;;9.35;3.67;;;;;;;;;;5023910;28;20038;-74
2021/12/06 08:34:52;;;;;;;14.52;4.18;;;;;;;;;;5025305;28;20051;-74
2021/12/06 08:37:18;;;;;;;15.73;4.68;;;;;;;;;;5029332;28;20034;-78
2021/12/06 08:39:47;;;;;;;11.30;3.75;;;;;;;;;;5025065;28;20388;-74
2021/12/06 08:42:13;;;;;;;9.15;3.28;;;;;;;;;;5023396;28;20030;-74
2021/12/06 08:44:39;;;;;;;17.30;5.05;;;;;;;;;;5025297;28;20018;-73
2021/12/06 08:47:09;;;;;;;13.00;4.35;;;;;;;;;;5036992;28;20056;-74
2021/12/06 08:49:37;;;;;;;12.88;3.90;;;;;;;;;;5046496;28;20065;-74
2021/12/06 08:52:04;;;;;;;9.57;5.32;;;;;;;;;;5046927;28;20033;-74
2021/12/06 08:54:30;;;;;;;11.40;3.92;;;;;;;;;;5035776;28;20053;-74
2021/12/06 08:56:58;;;;;;;15.55;4.28;;;;;;;;;;5026989;28;20030;-74
2021/12/06 08:59:24;;;;;;;15.38;4.45;;;;;;;;;;5024799;28;20025;-73
2021/12/06 09:01:51;;;;;;;13.30;4.43;;;;;;;;;;5025301;28;20024;-75
2021/12/06 09:04:17;;;;;;;11.65;3.50;;;;;;;;;;5024959;28;20385;-72
2021/12/06 09:06:45;;;;;;;11.52;5.18;;;;;;;;;;5023105;28;20111;-75
2021/12/06 09:09:12;;;;;;;14.60;4.38;;;;;;;;;;5022854;28;20030;-77
2021/12/06 09:11:39;;;;;;;22.50;4.50;;;;;;;;;;5021116;28;20022;-78
2021/12/06 09:14:05;;;;;;;8.85;3.53;;;;;;;;;;5021727;28;20507;-73
2021/12/06 09:16:32;;;;;;;13.23;3.15;;;;;;;;;;5027776;28;20040;-76
2021/12/06 09:19:01;;;;;;;11.30;4.35;;;;;;;;;;5019548;28;20021;-75
2021/12/06 09:21:27;;;;;;;14.02;4.32;;;;;;;;;;5022144;28;20037;-76
2021/12/06 09:23:55;;;;;;;10.85;3.42;;;;;;;;;;5025672;28;20053;-77
2021/12/06 09:26:21;;;;;;;10.35;3.35;;;;;;;;;;5021306;28;20108;-74
2021/12/06 09:28:47;;;;;;;11.75;4.03;;;;;;;;;;5024263;28;20041;-73
2021/12/06 09:31:15;;;;;;;6.97;3.30;;;;;;;;;;5021772;28;20069;-76
2021/12/06 09:33:41;;;;;;;9.48;3.58;;;;;;;;;;5022088;28;20053;-75
2021/12/06 09:36:10;;;;;;;8.80;2.92;;;;;;;;;;5012555;28;20029;-75
2021/12/06 09:38:39;;;;;;;8.27;3.72;;;;;;;;;;5013943;28;20022;-79
2021/12/06 09:41:08;;;;;;;9.77;2.60;;;;;;;;;;5010747;28;20069;-75
2021/12/06 09:43:38;;;;;;;12.40;3.22;;;;;;;;;;5019368;28;20018;-77
2021/12/06 09:46:04;;;;;;;7.75;2.97;;;;;;;;;;5018359;28;20032;-78
2021/12/06 09:48:31;;;;;;;7.65;3.08;;;;;;;;;;5018577;28;20034;-74
2021/12/06 09:50:58;;;;;;;11.50;2.88;;;;;;;;;;5017299;28;20042;-74
2021/12/06 09:53:27;;;;;;;7.20;3.35;;;;;;;;;;5018425;28;20037;-77
2021/12/06 09:55:54;;;;;;;6.55;3.63;;;;;;;;;;5019755;28;20413;-76
2021/12/06 09:58:20;;;;;;;4.82;2.40;;;;;;;;;;5015165;28;20112;-75
2021/12/06 10:00:49;;;;;;;11.52;2.60;;;;;;;;;;5014324;28;20083;-74
2021/12/06 10:03:21;;;;;;;9.00;2.60;;;;;;;;;;5022659;28;20492;-75
2021/12/06 10:05:47;;;;;;;15.02;3.03;;;;;;;;;;5020638;28;20381;-77
2021/12/06 10:08:13;;;;;;;6.05;2.88;;;;;;;;;;5021699;28;20029;-78
2021/12/06 10:10:39;;;;;;;5.38;2.83;;;;;;;;;;5019710;28;20030;-77
2021/12/06 10:13:06;;;;;;;10.35;2.97;;;;;;;;;;5022892;28;20037;-79
2021/12/06 10:15:32;;;;;;;8.90;2.80;;;;;;;;;;5024210;28;20025;-74
2021/12/06 10:18:00;;;;;;;4.70;2.80;;;;;;;;;;5023167;28;20033;-76
2021/12/06 10:20:27;;;;;;;7.03;2.78;;;;;;;;;;5024374;28;20022;-77
2021/12/06 10:22:54;;;;;;;8.57;3.00;;;;;;;;;;5021967;28;20093;-76
2021/12/06 10:25:20;;;;;;;8.23;2.58;;;;;;;;;;5027180;28;20025;-77
2021/12/06 10:27:54;;;;;;;12.40;3.05;;;;;;;;;;5025710;28;20022;-74
2021/12/06 10:30:21;;;;;;;12.15;2.95;;;;;;;;;;5029102;28;20480;-74
2021/12/06 10:32:48;;;;;;;6.82;2.90;;;;;;;;;;5012051;28;20022;-75
2021/12/06 10:35:15;;;;;;;6.03;2.53;;;;;;;;;;5018655;28;20026;-78
2021/12/06 10:37:55;;;;;;;9.68;2.92;;;;;;;;;;5027893;28;20022;-75
2021/12/06 10:40:27;;;;;;;11.93;2.53;;;;;;;;;;5029284;28;20014;-73
2021/12/06 10:42:55;;;;;;;7.13;2.80;;;;;;;;;;5028852;28;20388;-75
2021/12/06 10:45:23;;;;;;;9.90;2.42;;;;;;;;;;5025298;28;20052;-77
2021/12/06 10:48:06;;;;;;;12.10;2.65;;;;;;;;;;5025030;28;20050;-78
2021/12/06 10:50:32;;;;;;;14.55;2.92;;;;;;;;;;5026159;28;20042;-74
2021/12/06 10:53:00;;;;;;;8.32;2.95;;;;;;;;;;5027714;28;20037;-75
2021/12/06 10:55:28;;;;;;;8.32;3.50;;;;;;;;;;5030943;28;20034;-74
2021/12/06 10:57:56;;;;;;;12.07;3.85;;;;;;;;;;5042612;28;20044;-76
2021/12/06 11:00:31;;;;;;;12.88;3.33;;;;;;;;;;5034418;28;20026;-76
2021/12/06 11:02:57;;;;;;;9.40;2.40;;;;;;;;;;5027631;28;20361;-75
2021/12/06 11:05:28;;;;;;;7.65;3.30;;;;;;;;;;5025002;28;20053;-74
2021/12/06 11:07:58;;;;;;;9.25;3.35;;;;;;;;;;5027504;28;20022;-74
2021/12/06 11:10:25;;;;;;;14.93;3.47;;;;;;;;;;5028928;28;20032;-73
2021/12/06 11:13:11;;;;;;;9.50;3.33;;;;;;;;;;5026940;28;20037;-74
2021/12/06 11:15:36;;;;;;;;;;;;;;;;;;5026014;28;20056;-77
2021/12/06 11:18:03;;;;;;;6.20;3.00;;;;;;;;;;5022231;28;20324;-77
2021/12/06 11:20:29;;;;;;;8.45;4.28;;;;;;;;;;5020173;28;20104;-76
2021/12/06 11:23:03;;;;;;;13.20;3.15;;;;;;;;;;5019472;28;20465;-75
2021/12/06 11:25:33;;;;;;;7.10;3.03;;;;;;;;;;5017633;28;20026;-76
2021/12/06 11:27:59;;;;;;;12.88;4.57;;;;;;;;;;5029048;28;20585;-76
2021/12/06 11:30:27;;;;;;;10.98;3.35;;;;;;;;;;5036663;28;20030;-77
2021/12/06 11:32:56;;;;;;;16.88;5.13;;;;;;;;;;5027947;28;20022;-74
2021/12/06 11:35:24;;;;;;;17.67;5.18;;;;;;;;;;5012548;28;20033;-75
2021/12/06 11:37:51;;;;;;;6.75;3.20;;;;;;;;;;5016029;28;20116;-76
2021/12/06 11:40:25;;;;;;;10.15;4.05;;;;;;;;;;5015999;28;20029;-75
2021/12/06 11:42:56;;;;;;;12.25;3.90;;;;;;;;;;5017174;28;20429;-76
2021/12/06 11:45:33;;;;;;;7.47;2.95;;;;;;;;;;5026532;28;20050;-75
2021/12/06 11:48:01;;;;;;;10.70;3.50;;;;;;;;;;5022364;28;20022;-75
2021/12/06 11:50:27;;;;;;;13.02;4.35;;;;;;;;;;5040099;28;20096;-75
2021/12/06 11:52:54;;;;;;;15.18;3.92;;;;;;;;;;5027888;28;20025;-77
2021/12/06 11:55:20;;;;;;;12.20;3.58;;;;;;;;;;5022593;28;20056;-72
2021/12/06 11:57:53;;;;;;;12.30;3.85;;;;;;;;;;5023501;28;20026;-77
2021/12/06 12:00:21;;;;;;;8.57;3.63;;;;;;;;;;5021411;28;20060;-75
2021/12/06 12:02:58;;;;;;;9.60;3.72;;;;;;;;;;5022293;28;20057;-78
2021/12/06 12:05:51;;;;;;;8.52;3.50;;;;;;;;;;5021642;28;20014;-73
2021/12/06 12:08:17;;;;;;;7.22;2.53;;;;;;;;;;5019242;28;20061;-77
2021/12/06 12:10:44;;;;;;;12.45;3.33;;;;;;;;;;5020102;28;20061;-72
2021/12/06 12:13:12;;;;;;;9.55;2.55;;;;;;;;;;5019230;28;20029;-78
2021/12/06 12:15:38;;;;;;;6.95;2.60;;;;;;;;;;5019146;28;20022;-76
2021/12/06 12:18:37;;;;;;;4.72;1.83;;;;;;;;;;5022819;28;20091;-72
2021/12/06 12:21:03;;;;;;;2.50;1.98;;;;;;;;;;5002869;28;20030;-75
2021/12/06 12:23:33;;;;;;;6.63;2.65;;;;;;;;;;5022373;28;20045;-74
2021/12/06 12:26:03;;;;;;;4.18;1.90;;;;;;;;;;5021759;28;20022;-78
2021/12/06 12:29:12;;;;;;;6.35;3.10;;;;;;;;;;5033566;28;20018;-75
2021/12/06 12:31:23;;;;;;;6.65;2.40;;;;;;;;;;5022382;28;20097;-74
2021/12/06 12:33:50;;;;;;;5.60;2.25;;;;;;;;;;5029357;28;20056;-76
2021/12/06 12:36:19;;;;;;;4.60;2.30;;;;;;;;;;5020882;28;20118;-76
2021/12/06 12:38:47;;;;;;;5.28;2.45;;;;;;;;;;5017615;28;20026;-76
2021/12/06 12:41:15;;;;;;;8.48;2.72;;;;;;;;;;5022842;28;20033;-77
2021/12/06 12:43:42;;;;;;;5.60;3.05;;;;;;;;;;5018807;28;20037;-72
2021/12/06 12:46:19;;;;;;;10.10;2.88;;;;;;;;;;5034019;28;20105;-74
2021/12/06 12:48:58;;;;;;;3.70;2.50;;;;;;;;;;5029973;28;20064;-73
2021/12/06 12:51:35;;;;;;;5.93;2.47;;;;;;;;;;5033943;28;20030;-74
2021/12/06 12:54:31;;;;;;;7.20;3.63;;;;;;;;;;5043660;28;20036;-71
2021/12/06 12:57:01;;;;;;;9.45;3.80;;;;;;;;;;5012126;28;20038;-73
2021/12/06 12:59:46;;;;;;;6.28;2.47;;;;;;;;;;5022065;28;20037;-72
2021/12/06 13:02:17;;;;;;;8.30;3.15;;;;;;;;;;5019315;28;20030;-77
2021/12/06 13:04:59;;;;;;;7.72;3.40;;;;;;;;;;5021720;28;20048;-72
2021/12/06 13:07:25;;;;;;;4.47;3.83;;;;;;;;;;5025311;28;20081;-71
2021/12/06 13:09:52;;;;;;;9.50;4.22;;;;;;;;;;5025072;28;20034;-74
2021/12/06 13:12:18;;;;;;;13.05;6.03;;;;;;;;;;5041197;28;20030;-72
2021/12/06 13:14:49;;;;;;;5.07;2.95;;;;;;;;;;5037066;28;20030;-75
2021/12/06 13:17:43;;;;;;;8.20;5.72;;;;;;;;;;5043526;28;20149;-74
2021/12/06 13:20:20;;;;;;;4.28;3.40;;;;;;;;;;5043088;28;20026;-74
2021/12/06 13:22:51;;;;;;;8.15;5.63;;;;;;;;;;5023598;28;20543;-74
2021/12/06 13:25:20;;;;;;;8.23;3.92;;;;;;;;;;5040054;28;20033;-74
2021/12/06 13:28:07;;;;;;;5.32;3.20;;;;;;;;;;5029860;28;20040;-74
2021/12/06 13:30:49;;;;;;;5.50;2.63;;;;;;;;;;5025339;28;20045;-75
2021/12/06 13:33:20;;;;;;;4.38;2.10;;;;;;;;;;5024262;28;20034;-74
2021/12/06 13:35:55;;;;;;;4.90;2.47;;;;;;;;;;5022838;28;20044;-74
2021/12/06 13:38:25;;;;;;;3.42;2.05;;;;;;;;;;5036229;28;20494;-76
2021/12/06 13:40:52;;;;;;;4.88;2.60;;;;;;;;;;5018879;28;20034;-75
2021/12/06 13:43:20;;;;;;;5.15;2.80;;;;;;;;;;5017960;28;20026;-74
2021/12/06 13:45:50;;;;;;;4.88;2.40;;;;;;;;;;5017934;28;20090;-75
2021/12/06 13:48:23;;;;;;;4.78;2.50;;;;;;;;;;5017233;28;20049;-73
2021/12/06 13:50:51;;;;;;;4.75;2.25;;;;;;;;;;5004471;28;20040;-76
2021/12/06 13:53:34;;;;;;;7.03;2.70;;;;;;;;;;5030368;28;20044;-74
2021/12/06 13:56:06;;;;;;;5.53;2.30;;;;;;;;;;5027653;28;20126;-75
2021/12/06 13:58:34;;;;;;;6.57;2.50;;;;;;;;;;5005912;28;20018;-72
2021/12/06 14:01:02;;;;;;;5.93;2.63;;;;;;;;;;5021870;28;20049;-75
2021/12/06 14:03:36;;;;;;;12.73;3.13;;;;;;;;;;5016270;28;20028;-77
2021/12/06 14:06:14;;;;;;;6.32;3.83;;;;;;;;;;5016597;28;20073;-76
2021/12/06 14:08:45;;;;;;;7.80;3.03;;;;;;;;;;5015501;28;20026;-76
2021/12/06 14:11:11;;;;;;;10.18;5.63;;;;;;;;;;5015730;28;20484;-74
2021/12/06 14:13:37;;;;;;;6.35;2.58;;;;;;;;;;5013559;28;20034;-76
2021/12/06 14:16:07;;;;;;;7.88;4.05;;;;;;;;;;5014165;28;20117;-75
2021/12/06 14:18:33;;;;;;;7.90;3.33;;;;;;;;;;5012618;28;20104;-76
2021/12/06 14:21:00;;;;;;;14.90;6.03;;;;;;;;;;5010465;28;20030;-78
2021/12/06 14:23:28;;;;;;;7.05;2.83;;;;;;;;;;5010860;28;20105;-76
2021/12/06 14:26:02;;;;;;;8.05;3.38;;;;;;;;;;4994938;28;20125;-75
2021/12/06 14:28:29;;;;;;;3.78;2.00;;;;;;;;;;5035606;28;20061;-79
2021/12/06 14:30:56;;;;;;;6.00;3.25;;;;;;;;;;5017550;28;20064;-78
2021/12/06 14:33:23;;;;;;;4.13;2.35;;;;;;;;;;5018424;28;20523;-77
2021/12/06 14:35:49;;;;;;;9.23;2.97;;;;;;;;;;5022098;28;20056;-79
2021/12/06 14:38:15;;;;;;;5.32;3.50;;;;;;;;;;5022435;28;20494;-77
2021/12/06 14:40:42;;;;;;;6.82;2.67;;;;;;;;;;5020540;28;20040;-79
2021/12/06 14:43:12;;;;;;;6.00;2.47;;;;;;;;;;5015162;28;20037;-76
2021/12/06 14:45:39;;;;;;;4.88;3.22;;;;;;;;;;5012083;28;20026;-75
2021/12/06 14:48:09;;;;;;;4.65;2.33;;;;;;;;;;5014915;28;20101;-77
2021/12/06 14:50:49;;;;;;;6.65;3.83;;;;;;;;;;5012151;28;20388;-77
2021/12/06 14:53:20;;;;;;;4.78;2.22;;;;;;;;;;5016531;28;20022;-76
2021/12/06 14:55:55;;;;;;;5.53;2.65;;;;;;;;;;5013600;28;20033;-76
2021/12/06 14:58:27;;;;;;;4.57;2.60;;;;;;;;;;5012905;28;20026;-76
2021/12/06 15:00:59;;;;;;;64.97;35.63;;;;;;;;;;5011659;28;20038;-76